Time;durP1;ratioP1;P1;durP2;ratioP2;P2;SDS_P1;SDS_P2;PMS_P1;PMS_P2;Temp;Humidity;BMP_temperature;BMP_pressure;BME280_temperature;BME280_humidity;BME280_pressure;Samples;Min_cycle;Max_cycle;Signal;HPM_P1;HPM_P2
2022/03/05 00:01:09;;;;;;;48.17;17.83;;;;;;;-4.51;63.43;93862.06;5048043;28;20055;-59
2022/03/05 00:03:36;;;;;;;47.47;17.40;;;;;;;-4.40;63.06;93859.06;5049637;28;20040;-60
2022/03/05 00:06:03;;;;;;;46.45;17.10;;;;;;;-4.36;62.64;93862.66;5048758;28;20055;-59
2022/03/05 00:08:30;;;;;;;40.53;16.20;;;;;;;-4.38;62.27;93864.88;5049218;28;20628;-59
2022/03/05 00:10:56;;;;;;;37.08;15.20;;;;;;;-4.30;63.17;93858.69;5048791;28;20059;-59
2022/03/05 00:13:23;;;;;;;39.80;16.08;;;;;;;-4.21;62.70;93862.09;5049185;28;20052;-59
2022/03/05 00:15:51;;;;;;;41.10;15.63;;;;;;;-4.26;62.64;93862.28;5048667;28;20053;-57
2022/03/05 00:18:18;;;;;;;68.63;23.77;;;;;;;-4.25;62.70;93861.16;5048415;28;20922;-59
2022/03/05 00:20:45;;;;;;;65.50;22.90;;;;;;;-4.24;62.62;93862.75;5048973;28;20409;-59
2022/03/05 00:23:14;;;;;;;57.85;20.60;;;;;;;-4.15;62.62;93857.34;5048582;28;20052;-60
2022/03/05 00:25:41;;;;;;;53.85;19.52;;;;;;;-4.14;62.12;93865.06;5048795;28;20074;-60
2022/03/05 00:28:08;;;;;;;43.77;17.93;;;;;;;-4.11;62.74;93861.72;5048310;28;20048;-59
2022/03/05 00:30:35;;;;;;;43.72;17.40;;;;;;;-4.23;63.53;93867.75;5048888;28;20063;-59
2022/03/05 00:33:02;;;;;;;45.53;17.67;;;;;;;-4.19;63.05;93875.94;5032474;28;20073;-59
2022/03/05 00:35:30;;;;;;;45.35;17.60;;;;;;;-4.17;63.03;93868.38;5029031;28;20047;-60
2022/03/05 00:37:56;;;;;;;43.75;17.35;;;;;;;-4.53;62.89;93868.84;5028186;28;20076;-59
2022/03/05 00:40:23;;;;;;;43.47;17.23;;;;;;;-4.48;63.21;93868.69;5028636;28;20052;-59
2022/03/05 00:42:50;;;;;;;44.75;16.40;;;;;;;-4.46;62.93;93869.16;5027405;28;20617;-59
2022/03/05 00:45:16;;;;;;;39.80;15.75;;;;;;;-4.54;62.58;93869.97;5027834;28;21408;-59
2022/03/05 00:47:43;;;;;;;38.30;14.63;;;;;;;-4.48;62.52;93869.47;5028880;28;20042;-59
2022/03/05 00:50:10;;;;;;;35.38;14.45;;;;;;;-4.51;62.88;93874.69;5028111;28;20060;-59
2022/03/05 00:52:37;;;;;;;32.50;13.73;;;;;;;-4.50;63.17;93876.25;5028760;28;20056;-59
2022/03/05 00:55:05;;;;;;;33.08;13.68;;;;;;;-4.56;63.51;93877.53;5027984;28;20102;-60
2022/03/05 00:57:32;;;;;;;33.03;13.75;;;;;;;-4.55;62.84;93879.88;5028489;28;20056;-59
2022/03/05 00:59:59;;;;;;;33.60;12.90;;;;;;;-4.52;63.19;93879.25;5027838;28;20049;-59
2022/03/05 01:02:26;;;;;;;31.48;12.65;;;;;;;-4.64;63.12;93881.81;5028578;28;20095;-59
2022/03/05 01:04:53;;;;;;;28.33;12.17;;;;;;;-4.58;62.58;93883.22;5038014;28;20041;-58
2022/03/05 01:07:19;;;;;;;39.20;15.70;;;;;;;-4.89;64.05;93875.41;5048460;28;20055;-59
2022/03/05 01:09:46;;;;;;;36.03;14.50;;;;;;;-4.84;64.16;93878.72;5048451;28;20045;-59
2022/03/05 01:12:13;;;;;;;37.25;15.45;;;;;;;-5.15;65.24;93865.59;5051757;28;20033;-59
2022/03/05 01:14:39;;;;;;;43.53;16.77;;;;;;;-4.99;65.17;93878.44;5052659;28;20128;-60
2022/03/05 01:17:07;;;;;;;38.80;15.40;;;;;;;-5.03;65.17;93872.94;5051141;28;20413;-59
2022/03/05 01:19:34;;;;;;;40.97;16.10;;;;;;;-5.21;65.65;93869.53;5051130;28;20064;-59
2022/03/05 01:22:01;;;;;;;38.28;14.82;;;;;;;-5.13;65.84;93870.59;5051716;28;20397;-59
2022/03/05 01:24:28;;;;;;;43.38;16.20;;;;;;;-5.12;65.79;93874.84;5052417;28;20409;-59
2022/03/05 01:26:55;;;;;;;40.25;16.83;;;;;;;-5.21;65.67;93864.19;5051762;28;20045;-59
2022/03/05 01:29:21;;;;;;;43.40;15.97;;;;;;;-5.11;65.33;93860.34;5052342;28;20040;-60
2022/03/05 01:31:48;;;;;;;38.80;15.40;;;;;;;-5.09;65.02;93856.28;5046466;28;20040;-59
2022/03/05 01:34:15;;;;;;;35.70;13.55;;;;;;;-5.00;65.07;93858.16;5033805;28;20502;-59
2022/03/05 01:36:42;;;;;;;32.97;12.95;;;;;;;-5.14;65.11;93856.44;5030771;28;20417;-60
2022/03/05 01:39:09;;;;;;;25.17;11.05;;;;;;;-5.14;64.87;93861.00;5030914;28;20063;-60
2022/03/05 01:41:37;;;;;;;37.60;13.87;;;;;;;-5.36;66.16;93854.75;5031774;28;20053;-60
2022/03/05 01:44:05;;;;;;;33.67;13.38;;;;;;;-5.24;65.15;93852.19;5031219;28;20046;-60
2022/03/05 01:46:34;;;;;;;31.17;12.30;;;;;;;-5.20;65.28;93855.03;5030478;28;20053;-60
2022/03/05 01:49:07;;;;;;;30.77;13.23;;;;;;;-5.25;65.29;93847.97;5029788;28;20425;-59
2022/03/05 01:51:35;;;;;;;35.28;14.05;;;;;;;-5.31;65.57;93854.59;5032096;28;20064;-59
2022/03/05 01:54:02;;;;;;;37.03;14.23;;;;;;;-5.43;66.21;93855.22;5031080;28;20118;-59
2022/03/05 01:56:30;;;;;;;35.28;14.25;;;;;;;-5.31;66.13;93846.56;5031798;28;20056;-59
2022/03/05 01:58:58;;;;;;;37.10;14.15;;;;;;;-5.27;66.00;93858.19;5029853;28;20090;-59
2022/03/05 02:01:26;;;;;;;32.38;12.75;;;;;;;-5.33;65.78;93846.09;5031672;28;20048;-59
2022/03/05 02:03:55;;;;;;;31.23;12.25;;;;;;;-5.36;65.77;93848.59;5033156;28;20098;-59
2022/03/05 02:06:22;;;;;;;19.73;8.40;;;;;;;-5.36;65.86;93849.38;5051598;28;20057;-59
2022/03/05 02:08:49;;;;;;;28.48;11.40;;;;;;;-5.40;65.63;93845.78;5049899;28;20070;-59
2022/03/05 02:11:16;;;;;;;32.10;11.93;;;;;;;-5.45;65.92;93844.06;5050838;28;20045;-60
2022/03/05 02:13:43;;;;;;;38.42;15.45;;;;;;;-6.04;68.26;93841.88;5051452;28;20053;-60
2022/03/05 02:16:10;;;;;;;29.58;11.68;;;;;;;-5.73;67.59;93843.59;5050043;28;20052;-59
2022/03/05 02:18:37;;;;;;;29.80;11.23;;;;;;;-5.64;66.81;93843.59;5050237;28;20071;-59
2022/03/05 02:21:04;;;;;;;29.25;11.43;;;;;;;-5.51;66.08;93847.22;5050733;28;20115;-59
2022/03/05 02:23:31;;;;;;;31.63;12.30;;;;;;;-5.53;65.84;93844.03;5051044;28;20049;-58
2022/03/05 02:26:05;;;;;;;31.60;11.98;;;;;;;-5.59;66.06;93840.78;5050145;28;20487;-59
2022/03/05 02:28:35;;;;;;;28.15;10.75;;;;;;;-5.51;66.29;93836.53;5051128;28;20059;-59
2022/03/05 02:31:04;;;;;;;29.37;11.70;;;;;;;-5.53;65.94;93847.53;5048872;28;20036;-59
2022/03/05 02:33:30;;;;;;;30.88;12.40;;;;;;;-5.70;66.40;93837.59;5036001;28;20042;-59
2022/03/05 02:35:57;;;;;;;31.15;13.13;;;;;;;-5.70;66.81;93840.28;5030139;28;20122;-59
2022/03/05 02:38:24;;;;;;;39.15;15.98;;;;;;;-5.71;66.37;93840.63;5030896;28;20059;-60
2022/03/05 02:40:52;;;;;;;33.33;14.13;;;;;;;-5.73;66.16;93837.47;5031176;28;20060;-59
2022/03/05 02:43:21;;;;;;;32.90;12.97;;;;;;;-5.82;66.72;93838.22;5030121;28;20838;-58
2022/03/05 02:45:49;;;;;;;43.42;17.92;;;;;;;-6.03;67.07;93843.44;5030750;28;20033;-59
2022/03/05 02:48:17;;;;;;;42.20;15.98;;;;;;;-6.12;67.39;93837.28;5030198;28;20079;-59
2022/03/05 02:50:46;;;;;;;48.78;17.98;;;;;;;-6.12;66.59;93842.63;5030867;28;20102;-59
2022/03/05 02:53:13;;;;;;;41.50;16.63;;;;;;;-6.09;66.83;93842.03;5030064;28;20037;-59
2022/03/05 02:55:40;;;;;;;29.03;11.97;;;;;;;-6.06;66.89;93836.03;5030473;28;20049;-59
2022/03/05 02:58:07;;;;;;;27.58;10.63;;;;;;;-6.03;66.78;93843.44;5030182;28;20042;-59
2022/03/05 03:00:34;;;;;;;22.05;9.90;;;;;;;-6.05;66.56;93837.63;5030887;28;20439;-59
2022/03/05 03:03:02;;;;;;;21.13;8.63;;;;;;;-6.01;66.14;93837.78;5029748;28;20041;-59
2022/03/05 03:05:29;;;;;;;27.67;10.68;;;;;;;-6.12;66.46;93839.19;5045679;28;20048;-59
2022/03/05 03:07:56;;;;;;;29.20;11.20;;;;;;;-6.09;66.32;93835.91;5048338;28;20052;-59
2022/03/05 03:10:23;;;;;;;22.67;9.40;;;;;;;-6.11;65.79;93838.09;5050195;28;20049;-59
2022/03/05 03:12:50;;;;;;;26.73;10.73;;;;;;;-6.21;66.49;93836.50;5050468;28;20055;-59
2022/03/05 03:15:17;;;;;;;27.67;11.25;;;;;;;-6.27;67.12;93835.88;5049637;28;20037;-59
2022/03/05 03:17:49;;;;;;;23.25;9.50;;;;;;;-6.14;66.61;93839.50;5050044;28;20521;-59
2022/03/05 03:20:24;;;;;;;24.63;9.90;;;;;;;-6.17;66.35;93828.66;5049323;28;20033;-59
2022/03/05 03:22:52;;;;;;;21.85;9.27;;;;;;;-6.17;67.05;93829.44;5050198;28;20054;-59
2022/03/05 03:25:19;;;;;;;23.60;9.15;;;;;;;-6.10;66.49;93824.41;5047637;28;20052;-59
2022/03/05 03:27:46;;;;;;;22.08;8.52;;;;;;;-6.07;67.12;93825.69;5050180;28;20041;-59
2022/03/05 03:30:14;;;;;;;22.45;9.15;;;;;;;-6.20;67.29;93826.59;5049292;28;20048;-59
2022/03/05 03:32:42;;;;;;;24.67;9.60;;;;;;;-6.08;67.08;93826.78;5049745;28;20053;-59
2022/03/05 03:35:11;;;;;;;23.88;9.27;;;;;;;-6.25;67.39;93828.34;5048996;28;20121;-59
2022/03/05 03:37:38;;;;;;;19.83;8.10;;;;;;;-6.19;66.90;93828.97;5049790;28;20045;-59
2022/03/05 03:40:08;;;;;;;31.27;11.68;;;;;;;-6.55;68.00;93834.56;5048742;28;20037;-59
2022/03/05 03:42:35;;;;;;;28.85;11.35;;;;;;;-6.41;67.77;93829.88;5049818;28;20484;-61
2022/03/05 03:45:03;;;;;;;24.30;10.27;;;;;;;-6.40;67.74;93831.44;5048791;28;20051;-61
2022/03/05 03:47:30;;;;;;;24.70;9.23;;;;;;;-6.26;67.43;93833.97;5049631;28;20059;-61
2022/03/05 03:49:57;;;;;;;28.35;11.18;;;;;;;-6.47;67.84;93831.13;5048949;28;20358;-59
2022/03/05 03:52:24;;;;;;;26.13;9.43;;;;;;;-6.49;67.79;93838.66;5048227;28;20048;-59
2022/03/05 03:54:51;;;;;;;25.38;9.98;;;;;;;-6.63;68.44;93834.19;5049562;28;20051;-59
2022/03/05 03:57:17;;;;;;;20.60;8.70;;;;;;;-6.45;67.62;93831.59;5048875;28;20122;-58
2022/03/05 03:59:46;;;;;;;17.95;7.32;;;;;;;-6.18;66.98;93835.09;5049293;28;20040;-59
2022/03/05 04:02:13;;;;;;;24.67;9.57;;;;;;;-6.08;66.52;93832.13;5041197;28;20047;-59
2022/03/05 04:04:41;;;;;;;28.83;10.20;;;;;;;-6.28;66.71;93836.97;5038431;28;20059;-59
2022/03/05 04:09:54;;;;;;;29.63;10.80;;;;;;;-6.59;67.85;93833.59;5048771;28;20051;-59
2022/03/05 04:12:21;;;;;;;26.67;10.98;;;;;;;-6.58;68.05;93851.94;5049034;28;20041;-59
2022/03/05 04:14:49;;;;;;;26.95;11.25;;;;;;;-6.49;68.29;93836.75;5048161;28;20048;-59
2022/03/05 04:17:16;;;;;;;30.83;11.05;;;;;;;-6.45;68.02;93842.28;5048004;28;20059;-59
2022/03/05 04:19:43;;;;;;;36.53;13.70;;;;;;;-6.27;67.95;93840.44;5048996;28;20067;-59
2022/03/05 04:22:10;;;;;;;26.33;9.53;;;;;;;-6.63;68.30;93834.19;5048263;28;20503;-59
2022/03/05 04:24:37;;;;;;;22.98;8.65;;;;;;;-6.25;67.50;93839.00;5049012;28;20047;-59
2022/03/05 04:27:05;;;;;;;23.05;10.00;;;;;;;-6.16;67.43;93832.91;5048165;28;20048;-59
2022/03/05 04:29:32;;;;;;;29.35;10.18;;;;;;;-6.29;67.61;93826.59;5048867;28;20700;-59
2022/03/05 04:31:59;;;;;;;25.52;10.38;;;;;;;-6.25;67.67;93841.69;5048371;28;20452;-59
2022/03/05 04:34:26;;;;;;;26.93;9.93;;;;;;;-6.29;67.75;93829.28;5048809;28;20052;-59
2022/03/05 04:36:52;;;;;;;24.60;8.93;;;;;;;-6.19;67.67;93836.22;5048351;28;20064;-57
2022/03/05 04:39:19;;;;;;;26.23;10.18;;;;;;;-6.17;67.32;93832.13;5048400;28;20045;-59
2022/03/05 04:41:46;;;;;;;23.88;8.63;;;;;;;-5.97;66.96;93824.59;5047213;28;20045;-59
2022/03/05 04:44:13;;;;;;;25.50;8.85;;;;;;;-6.09;67.28;93836.69;5047711;28;20075;-58
2022/03/05 04:46:39;;;;;;;20.90;7.80;;;;;;;-5.97;67.11;93833.41;5047931;28;20094;-59
2022/03/05 04:49:11;;;;;;;25.00;9.45;;;;;;;-5.87;66.18;93829.59;5046623;28;20044;-59
2022/03/05 04:51:37;;;;;;;29.55;10.38;;;;;;;-6.03;66.59;93835.44;5048582;28;20052;-58
2022/03/05 04:54:04;;;;;;;28.23;9.90;;;;;;;-6.07;66.91;93836.38;5047792;28;20045;-58
2022/03/05 04:56:31;;;;;;;25.92;10.43;;;;;;;-6.38;67.69;93833.78;5047311;28;20053;-59
2022/03/05 04:58:58;;;;;;;32.77;10.90;;;;;;;-6.50;68.72;93837.88;5048010;28;20670;-59
2022/03/05 05:01:24;;;;;;;22.67;8.95;;;;;;;-6.47;68.31;93836.44;5045020;28;20049;-59
2022/03/05 05:03:52;;;;;;;26.77;10.73;;;;;;;-6.57;68.82;93837.53;5039745;28;20057;-59
2022/03/05 05:06:19;;;;;;;24.77;9.68;;;;;;;-6.56;68.67;93833.78;5047505;28;21535;-58
2022/03/05 05:08:46;;;;;;;22.13;9.27;;;;;;;-6.40;68.69;93831.44;5048418;28;20048;-59
2022/03/05 05:11:13;;;;;;;24.17;9.43;;;;;;;-6.33;68.37;93831.00;5047712;28;20045;-58
2022/03/05 05:13:40;;;;;;;26.35;9.95;;;;;;;-6.40;68.43;93830.66;5048365;28;20053;-59
2022/03/05 05:16:07;;;;;;;24.52;9.93;;;;;;;-6.48;68.41;93835.69;5045962;28;20063;-59
2022/03/05 05:18:34;;;;;;;25.60;10.25;;;;;;;-6.71;69.08;93829.63;5080533;28;20068;-59
2022/03/05 05:21:02;;;;;;;27.63;10.55;;;;;;;-6.74;69.56;93835.59;5047878;28;20508;-58
2022/03/05 05:23:28;;;;;;;27.17;10.13;;;;;;;-6.98;70.64;93835.16;5048144;28;20517;-59
2022/03/05 05:25:55;;;;;;;31.70;11.50;;;;;;;-6.89;70.46;93828.78;5047821;28;20049;-59
2022/03/05 05:28:22;;;;;;;30.52;11.75;;;;;;;-6.78;70.33;93825.81;5048238;28;20048;-59
2022/03/05 05:30:49;;;;;;;29.13;10.63;;;;;;;-6.67;69.85;93830.56;5048149;28;20051;-58
2022/03/05 05:33:16;;;;;;;28.27;11.27;;;;;;;-6.85;71.34;93835.06;5047470;28;20044;-59
2022/03/05 05:35:43;;;;;;;33.23;12.20;;;;;;;-6.84;71.67;93842.00;5048408;28;20079;-59
2022/03/05 05:38:09;;;;;;;29.80;11.73;;;;;;;-6.76;71.17;93842.31;5047569;28;20071;-59
2022/03/05 05:40:36;;;;;;;35.70;12.85;;;;;;;-6.73;70.60;93841.72;5048175;28;20360;-59
2022/03/05 05:43:03;;;;;;;33.17;12.68;;;;;;;-6.67;70.73;93841.25;5047917;28;20049;-59
2022/03/05 05:45:29;;;;;;;36.63;13.65;;;;;;;-6.60;70.54;93832.00;5048188;28;20049;-59
2022/03/05 05:47:58;;;;;;;34.50;14.30;;;;;;;-6.58;69.86;93840.50;5047614;28;20045;-59
2022/03/05 05:50:25;;;;;;;35.97;15.23;;;;;;;-6.54;69.83;93830.78;5047928;28;20545;-58
2022/03/05 05:52:51;;;;;;;32.95;12.05;;;;;;;-6.34;69.38;93834.75;5048269;28;20110;-58
2022/03/05 05:55:18;;;;;;;39.90;15.50;;;;;;;-6.29;68.47;93835.41;5046945;28;20870;-58
2022/03/05 05:57:45;;;;;;;39.05;16.33;;;;;;;-6.66;69.14;93834.03;5050685;28;20061;-59
2022/03/05 06:00:12;;;;;;;39.00;14.93;;;;;;;-6.57;69.38;93831.41;5051123;28;20153;-58
2022/03/05 06:02:39;;;;;;;31.10;12.82;;;;;;;-6.97;71.53;93832.19;5051446;28;20049;-59
2022/03/05 06:05:06;;;;;;;31.45;12.27;;;;;;;-6.76;70.92;93832.44;5049570;28;20382;-59
2022/03/05 06:07:33;;;;;;;29.88;12.57;;;;;;;-6.84;70.83;93827.84;5051347;28;20045;-59
2022/03/05 06:09:59;;;;;;;38.90;13.15;;;;;;;-6.74;70.49;93846.28;5049632;28;20051;-59
2022/03/05 06:12:26;;;;;;;32.97;12.90;;;;;;;-6.65;70.02;93844.41;5051305;28;20498;-59
2022/03/05 06:14:53;;;;;;;34.05;12.52;;;;;;;-6.47;69.90;93837.22;5051077;28;20378;-59
2022/03/05 06:17:19;;;;;;;30.95;12.27;;;;;;;-6.56;70.09;93847.13;5050678;28;20414;-59
2022/03/05 06:19:46;;;;;;;22.92;9.32;;;;;;;-6.37;69.81;93854.84;5051187;28;20060;-59
2022/03/05 06:22:13;;;;;;;23.25;9.18;;;;;;;-6.11;69.48;93854.91;5050403;28;20040;-59
2022/03/05 06:24:40;;;;;;;25.77;11.07;;;;;;;-6.29;68.66;93854.09;5050860;28;20040;-59
2022/03/05 06:27:07;;;;;;;24.92;10.07;;;;;;;-6.17;68.89;93853.50;5050453;28;20052;-60
2022/03/05 06:29:34;;;;;;;33.28;12.90;;;;;;;-6.43;68.78;93859.53;5051474;28;20041;-59
2022/03/05 06:32:01;;;;;;;33.03;12.75;;;;;;;-6.34;68.60;93853.44;5050475;28;20047;-59
2022/03/05 06:34:28;;;;;;;35.80;13.75;;;;;;;-6.22;69.49;93845.59;5050818;28;20041;-59
2022/03/05 06:36:55;;;;;;;34.90;13.40;;;;;;;-6.06;68.78;93854.75;5050706;28;20064;-59
2022/03/05 06:39:22;;;;;;;49.60;16.70;;;;;;;-6.13;68.35;93854.44;5050583;28;20048;-59
2022/03/05 06:41:49;;;;;;;40.53;16.17;;;;;;;-6.08;68.69;93850.81;5050807;28;20522;-59
2022/03/05 06:44:16;;;;;;;40.15;16.27;;;;;;;-5.90;67.74;93862.28;5050122;28;20055;-59
2022/03/05 06:46:43;;;;;;;44.10;16.42;;;;;;;-5.89;67.79;93870.00;5050742;28;20040;-59
2022/03/05 06:49:10;;;;;;;43.73;17.60;;;;;;;-5.85;68.35;93865.59;5050052;28;20445;-59
2022/03/05 06:51:37;;;;;;;45.35;18.20;;;;;;;-5.81;67.78;93865.75;5050679;28;20464;-59
2022/03/05 06:54:03;;;;;;;43.70;18.05;;;;;;;-5.79;67.28;93857.41;5050034;28;20528;-58
2022/03/05 06:56:30;;;;;;;56.30;21.05;;;;;;;-5.71;67.27;93864.69;5049181;28;20049;-59
2022/03/05 06:58:57;;;;;;;48.00;20.85;;;;;;;-5.62;67.11;93863.56;5049987;28;20057;-59
2022/03/05 07:01:24;;;;;;;54.50;22.07;;;;;;;-5.63;66.93;93864.66;5050032;28;20098;-59
2022/03/05 07:03:51;;;;;;;41.92;17.30;;;;;;;-5.48;66.87;93871.41;5050582;28;20049;-59
2022/03/05 07:06:18;;;;;;;44.50;18.58;;;;;;;-5.24;66.44;93878.16;5049535;28;21605;-58
2022/03/05 07:08:45;;;;;;;36.33;14.10;;;;;;;-5.06;66.64;93870.91;5049742;28;20033;-58
2022/03/05 07:11:11;;;;;;;33.70;16.10;;;;;;;-4.83;66.17;93884.84;5049900;28;20462;-59
2022/03/05 07:13:38;;;;;;;32.47;13.63;;;;;;;-4.67;65.62;93883.25;5050610;28;20409;-59
2022/03/05 07:16:05;;;;;;;32.35;12.55;;;;;;;-4.49;64.43;93881.28;5049545;28;20063;-59
2022/03/05 07:18:32;;;;;;;37.75;14.55;;;;;;;-4.38;64.72;93881.72;5050266;28;20047;-58
2022/03/05 07:20:59;;;;;;;31.73;14.32;;;;;;;-4.23;64.21;93880.38;5049498;28;20049;-59
2022/03/05 07:23:26;;;;;;;45.63;23.00;;;;;;;-4.02;64.34;93883.91;5049927;28;20112;-61
2022/03/05 07:25:53;;;;;;;32.83;15.07;;;;;;;-3.81;64.17;93885.81;5049687;28;20059;-59
2022/03/05 07:28:19;;;;;;;32.78;14.73;;;;;;;-3.57;63.43;93885.19;5049806;28;20055;-58
2022/03/05 07:30:46;;;;;;;33.42;15.13;;;;;;;-2.67;61.56;93893.72;5050225;28;20045;-59
2022/03/05 07:33:13;;;;;;;33.13;14.48;;;;;;;1.09;53.20;93888.78;5040965;28;20043;-59
2022/03/05 07:35:41;;;;;;;34.17;16.13;;;;;;;3.21;45.33;93887.50;5041203;28;20045;-60
2022/03/05 07:38:08;;;;;;;28.07;14.57;;;;;;;6.37;40.08;93878.56;5049622;28;20168;-59
2022/03/05 07:40:34;;;;;;;32.28;16.95;;;;;;;8.14;36.14;93882.28;5081609;28;20044;-59
2022/03/05 07:43:01;;;;;;;33.47;18.65;;;;;;;8.20;33.98;93884.19;5049223;28;20059;-58
2022/03/05 07:45:28;;;;;;;30.40;16.55;;;;;;;6.95;36.39;93873.84;5049633;28;20482;-58
2022/03/05 07:47:54;;;;;;;28.85;17.25;;;;;;;9.49;32.78;93876.00;5047791;28;20041;-59
2022/03/05 07:50:22;;;;;;;27.33;16.53;;;;;;;10.31;30.20;93877.69;5048191;28;20055;-59
2022/03/05 07:52:49;;;;;;;27.65;15.68;;;;;;;9.05;31.26;93883.13;5049688;28;20045;-59
2022/03/05 07:55:19;;;;;;;27.50;16.67;;;;;;;9.64;30.51;93873.88;5048800;28;20045;-59
2022/03/05 07:57:47;;;;;;;25.95;15.05;;;;;;;12.08;27.97;93878.06;5049341;28;20405;-59
2022/03/05 08:00:14;;;;;;;25.02;15.15;;;;;;;11.96;27.45;93865.75;5047441;28;20036;-59
2022/03/05 08:02:48;;;;;;;27.27;15.93;;;;;;;13.95;25.04;93874.19;5048735;28;20060;-59
2022/03/05 08:05:15;;;;;;;23.70;14.82;;;;;;;14.26;24.60;93873.66;5048577;28;20037;-59
2022/03/05 08:07:42;;;;;;;20.90;13.48;;;;;;;13.82;25.05;93881.66;5047891;28;20332;-59
2022/03/05 08:10:09;;;;;;;24.48;15.82;;;;;;;12.64;25.27;93874.44;5048636;28;20052;-59
2022/03/05 08:12:36;;;;;;;22.45;14.57;;;;;;;10.55;28.65;93888.72;5048832;28;20447;-60
2022/03/05 08:15:04;;;;;;;22.27;14.40;;;;;;;14.39;24.19;93883.50;5048516;28;20466;-60
2022/03/05 08:17:31;;;;;;;23.92;13.80;;;;;;;15.24;22.90;93866.66;5048495;28;20049;-59
2022/03/05 08:19:58;;;;;;;22.17;14.45;;;;;;;15.60;21.67;93870.94;5048362;28;20036;-60
2022/03/05 08:22:25;;;;;;;21.42;14.18;;;;;;;16.23;20.97;93869.84;5048555;28;20549;-60
2022/03/05 08:24:52;;;;;;;28.98;18.33;;;;;;;14.84;22.40;93867.19;5048931;28;20108;-59
2022/03/05 08:27:19;;;;;;;27.30;15.60;;;;;;;10.90;26.04;93875.59;5047969;28;20723;-59
2022/03/05 08:29:45;;;;;;;79.43;38.03;;;;;;;13.27;23.11;93871.28;5048790;28;20053;-60
2022/03/05 08:32:12;;;;;;;120.63;75.93;;;;;;;16.83;20.95;93860.44;5048242;28;20053;-60
2022/03/05 08:34:39;;;;;;;24.48;15.68;;;;;;;16.80;20.19;93861.28;5048972;28;20041;-60
2022/03/05 08:37:06;;;;;;;21.30;14.02;;;;;;;18.02;18.90;93863.78;5048208;28;20059;-60
2022/03/05 08:39:32;;;;;;;21.23;14.93;;;;;;;17.27;19.13;93856.69;5048213;28;20413;-60
2022/03/05 08:41:59;;;;;;;25.75;15.13;;;;;;;14.89;21.60;93855.53;5048350;28;20112;-60
2022/03/05 08:44:27;;;;;;;20.45;13.57;;;;;;;14.58;22.01;93853.38;5048182;28;20049;-60
2022/03/05 08:46:54;;;;;;;21.05;13.93;;;;;;;16.07;20.80;93856.97;5048128;28;20048;-60
2022/03/05 08:49:22;;;;;;;20.58;13.20;;;;;;;16.46;20.13;93854.72;5046963;28;20055;-60
2022/03/05 08:51:48;;;;;;;20.40;14.43;;;;;;;13.78;22.26;93863.22;5048251;28;20043;-60
2022/03/05 08:54:15;;;;;;;20.73;14.10;;;;;;;15.84;21.18;93852.69;5047372;28;20041;-61
2022/03/05 08:56:42;;;;;;;26.90;17.65;;;;;;;17.39;18.50;93852.97;5048535;28;20041;-60
2022/03/05 08:59:09;;;;;;;20.30;13.73;;;;;;;18.41;17.80;93853.66;5047978;28;20049;-60
2022/03/05 09:01:36;;;;;;;20.38;14.15;;;;;;;19.34;16.88;93846.41;5047991;28;20041;-60
2022/03/05 09:04:03;;;;;;;23.17;13.73;;;;;;;12.38;23.02;93855.00;5037891;28;20047;-61
2022/03/05 09:06:30;;;;;;;20.05;13.45;;;;;;;12.75;22.97;93850.94;5028333;28;20056;-60
2022/03/05 09:08:57;;;;;;;19.95;13.02;;;;;;;14.45;21.26;93850.59;5026795;28;20041;-61
2022/03/05 09:11:24;;;;;;;19.02;12.90;;;;;;;15.28;20.37;93843.19;5027995;28;20034;-60
2022/03/05 09:13:51;;;;;;;23.40;13.35;;;;;;;15.76;19.51;93854.94;5027102;28;20049;-60
2022/03/05 09:16:18;;;;;;;19.77;12.93;;;;;;;16.35;19.41;93840.53;5027251;28;20577;-60
2022/03/05 09:18:45;;;;;;;17.67;12.32;;;;;;;15.65;19.63;93842.69;5028420;28;20430;-60
2022/03/05 09:21:12;;;;;;;20.00;13.43;;;;;;;13.22;22.09;93836.00;5027979;28;22566;-60
2022/03/05 09:23:39;;;;;;;19.23;13.70;;;;;;;8.40;26.79;93853.59;5028201;28;20046;-60
2022/03/05 09:26:05;;;;;;;18.65;12.10;;;;;;;13.11;22.77;93847.28;5027719;28;20550;-60
2022/03/05 09:28:32;;;;;;;18.70;12.47;;;;;;;13.36;21.10;93845.88;5028280;28;20068;-60
2022/03/05 09:30:59;;;;;;;17.55;12.00;;;;;;;14.31;21.16;93835.25;5027770;28;20049;-60
2022/03/05 09:33:26;;;;;;;18.13;12.13;;;;;;;14.21;20.66;93841.88;5031870;28;20048;-61
2022/03/05 09:35:53;;;;;;;56.45;24.90;;;;;;;14.71;21.05;93836.81;5031754;28;20420;-62
2022/03/05 09:38:19;;;;;;;22.52;13.82;;;;;;;17.57;18.54;93838.34;5030578;28;20049;-61
2022/03/05 09:40:46;;;;;;;16.13;11.00;;;;;;;18.71;16.72;93829.59;5032186;28;20483;-60
2022/03/05 09:43:13;;;;;;;17.02;11.13;;;;;;;13.45;20.57;93851.53;5031494;28;20041;-60
2022/03/05 09:45:43;;;;;;;16.55;11.02;;;;;;;13.10;21.80;93847.72;5031772;28;20056;-61
2022/03/05 09:48:14;;;;;;;18.83;11.30;;;;;;;17.59;17.97;93835.88;5031463;28;20054;-61
2022/03/05 09:50:41;;;;;;;17.45;11.73;;;;;;;15.56;18.26;93838.66;5031707;28;20049;-61
2022/03/05 09:53:08;;;;;;;15.03;10.07;;;;;;;16.60;18.13;93841.53;5031614;28;20049;-62
2022/03/05 09:55:35;;;;;;;16.02;11.02;;;;;;;11.95;22.74;93848.47;5031255;28;20042;-60
2022/03/05 09:58:10;;;;;;;15.60;10.20;;;;;;;11.30;22.80;93831.72;5031393;28;20112;-60
2022/03/05 10:00:39;;;;;;;15.13;9.85;;;;;;;14.66;19.32;93827.09;5031506;28;20044;-60
2022/03/05 10:03:07;;;;;;;16.33;10.90;;;;;;;11.11;23.59;93841.50;5032232;28;20059;-61
2022/03/05 10:05:36;;;;;;;13.80;9.70;;;;;;;12.97;21.50;93847.66;5047752;28;20064;-60
2022/03/05 10:08:13;;;;;;;27.73;9.43;;;;;;;15.19;18.55;93832.03;5046424;28;20505;-60
2022/03/05 10:10:44;;;;;;;14.38;9.20;;;;;;;15.86;18.09;93821.81;5031125;28;20045;-60
2022/03/05 10:13:23;;;;;;;12.90;8.48;;;;;;;15.42;17.55;93827.31;5030825;28;20076;-60
2022/03/05 10:15:56;;;;;;;14.27;10.07;;;;;;;11.56;21.28;93835.50;5030921;28;20505;-60
2022/03/05 10:18:40;;;;;;;15.20;9.40;;;;;;;13.00;20.69;93827.53;5030066;28;20672;-61
2022/03/05 10:21:09;;;;;;;13.95;8.75;;;;;;;13.84;19.33;93826.81;5030805;28;20060;-61
2022/03/05 10:23:38;;;;;;;13.07;8.55;;;;;;;14.12;18.85;93830.72;5031188;28;20378;-60
2022/03/05 10:26:07;;;;;;;15.65;11.23;;;;;;;13.26;20.32;93827.59;5030850;28;20513;-60
2022/03/05 10:28:37;;;;;;;12.13;8.07;;;;;;;12.25;20.26;93824.59;5030996;28;20418;-60
2022/03/05 10:31:10;;;;;;;13.60;9.13;;;;;;;13.19;20.68;93825.81;5030534;28;20056;-60
2022/03/05 10:33:44;;;;;;;13.65;8.90;;;;;;;10.77;22.09;93821.28;5030829;28;20061;-61
2022/03/05 10:36:22;;;;;;;12.15;8.07;;;;;;;12.38;21.33;93819.97;5030448;28;20043;-60
2022/03/05 10:39:02;;;;;;;12.13;8.18;;;;;;;11.88;22.10;93826.59;5030977;28;20075;-60
2022/03/05 10:41:32;;;;;;;12.85;8.68;;;;;;;9.47;23.10;93829.09;5028108;28;20103;-60
2022/03/05 10:44:11;;;;;;;13.20;7.43;;;;;;;15.07;18.43;93817.06;5029265;28;20045;-60
2022/03/05 10:46:53;;;;;;;10.80;7.03;;;;;;;11.92;20.32;93834.78;5029262;28;20114;-60
2022/03/05 10:49:36;;;;;;;11.80;7.63;;;;;;;9.89;22.86;93833.22;5029864;28;21772;-60
2022/03/05 10:52:02;;;;;;;11.77;7.70;;;;;;;10.12;23.59;93831.72;5030076;28;20041;-60
2022/03/05 10:54:41;;;;;;;11.55;7.40;;;;;;;10.42;22.19;93821.88;5030443;28;20053;-60
2022/03/05 10:57:16;;;;;;;13.70;8.37;;;;;;;13.50;20.50;93825.41;5029972;28;20037;-60
2022/03/05 10:59:45;;;;;;;16.80;7.75;;;;;;;12.56;20.22;93840.81;5030588;28;20049;-60
2022/03/05 11:02:18;;;;;;;15.55;8.35;;;;;;;8.11;26.30;93839.34;5030018;28;20483;-60
2022/03/05 11:04:46;;;;;;;11.07;6.50;;;;;;;9.75;22.31;93842.41;5039546;28;20524;-60
2022/03/05 11:07:17;;;;;;;13.27;7.68;;;;;;;9.76;23.83;93841.22;5048527;28;20099;-60
2022/03/05 11:09:47;;;;;;;12.07;7.90;;;;;;;10.28;23.52;93831.88;5050328;28;20486;-60
2022/03/05 11:12:18;;;;;;;12.68;7.65;;;;;;;9.87;24.31;93829.34;5049957;28;20645;-60
2022/03/05 11:14:46;;;;;;;14.25;8.30;;;;;;;9.58;25.11;93833.25;5032377;28;20049;-60
2022/03/05 11:17:14;;;;;;;12.73;7.95;;;;;;;11.26;22.00;93823.53;5049668;28;20367;-60
2022/03/05 11:19:41;;;;;;;12.40;7.53;;;;;;;10.54;22.31;93827.56;5050027;28;20045;-60
2022/03/05 11:22:08;;;;;;;13.07;8.23;;;;;;;10.78;23.26;93833.03;5049349;28;20048;-60
2022/03/05 11:24:38;;;;;;;10.75;6.78;;;;;;;14.50;18.48;93810.63;5049683;28;20049;-60